createdAt,value
2022-11-21T00:00:25.677Z,97078.19
2022-11-21T00:02:52.146Z,97075.59
2022-11-21T00:05:18.622Z,97081.63
2022-11-21T00:07:46.045Z,97085.78
2022-11-21T00:10:13.007Z,97083.06
2022-11-21T00:12:39.736Z,97092.50
2022-11-21T00:15:06.464Z,97091.00
2022-11-21T00:17:32.937Z,97094.75
2022-11-21T00:19:59.494Z,97090.00
2022-11-21T00:22:25.967Z,97086.03
2022-11-21T00:24:54.310Z,97074.19
2022-11-21T00:27:20.954Z,97085.03
2022-11-21T00:29:47.409Z,97078.72
2022-11-21T00:32:13.877Z,97083.03
2022-11-21T00:34:40.353Z,97084.13
2022-11-21T00:37:06.821Z,97082.00
2022-11-21T00:39:33.304Z,97087.94
2022-11-21T00:41:59.763Z,97092.75
2022-11-21T00:44:26.571Z,97096.78
2022-11-21T00:46:53.156Z,97094.38
2022-11-21T00:49:19.615Z,97093.59
2022-11-21T00:51:46.091Z,97090.16
2022-11-21T00:54:12.646Z,97097.13
2022-11-21T00:56:39.112Z,97101.44
2022-11-21T00:59:05.905Z,97098.56
2022-11-21T01:01:32.391Z,97106.81
2022-11-21T01:03:59.025Z,97097.03
2022-11-21T01:06:25.491Z,97105.31
2022-11-21T01:08:51.979Z,97106.44
2022-11-21T01:11:19.290Z,97103.78
2022-11-21T01:13:45.974Z,97097.44
2022-11-21T01:16:20.339Z,97102.75
2022-11-21T01:18:47.327Z,97102.81
2022-11-21T01:21:15.374Z,97094.06
2022-11-21T01:23:41.886Z,97095.72
2022-11-21T01:26:11.086Z,97106.34
2022-11-21T01:28:37.543Z,97101.88
2022-11-21T01:31:17.429Z,97101.09
2022-11-21T01:33:43.995Z,97103.22
2022-11-21T01:36:14.806Z,97103.03
2022-11-21T01:38:42.211Z,97105.16
2022-11-21T01:41:08.976Z,97099.91
2022-11-21T01:43:35.702Z,97105.00
2022-11-21T01:46:08.147Z,97103.41
2022-11-21T01:48:40.895Z,97105.84
2022-11-21T01:51:11.831Z,97110.94
2022-11-21T01:53:38.291Z,97109.06
2022-11-21T01:56:04.796Z,97109.63
2022-11-21T01:58:31.391Z,97117.91
2022-11-21T02:00:57.948Z,97120.81
2022-11-21T02:03:25.468Z,97125.81
2022-11-21T02:05:52.469Z,97119.41
2022-11-21T02:08:19.940Z,97120.16
2022-11-21T02:11:16.090Z,97120.94
2022-11-21T02:13:42.655Z,97122.75
2022-11-21T02:16:09.138Z,97117.44
2022-11-21T02:18:35.586Z,97112.63
2022-11-21T02:21:07.998Z,97120.63
2022-11-21T02:23:41.999Z,97124.56
2022-11-21T02:26:08.813Z,97132.25
2022-11-21T02:28:35.350Z,97135.72
2022-11-21T02:31:01.843Z,97130.66
2022-11-21T02:33:28.315Z,97130.66
2022-11-21T02:35:58.850Z,97132.03
2022-11-21T02:38:35.578Z,97132.03
2022-11-21T02:41:12.569Z,97128.59
2022-11-21T02:43:47.737Z,97128.34
2022-11-21T02:46:14.525Z,97120.94
2022-11-21T02:48:40.994Z,97122.81
2022-11-21T02:51:07.921Z,97125.47
2022-11-21T02:53:34.438Z,97135.06
2022-11-21T02:56:00.898Z,97132.47
2022-11-21T02:58:27.653Z,97133.84
2022-11-21T03:00:55.352Z,97129.38
2022-11-21T03:03:22.133Z,97134.94
2022-11-21T03:05:48.665Z,97134.16
2022-11-21T03:08:15.181Z,97132.03
2022-11-21T03:10:41.647Z,97132.03
2022-11-21T03:13:08.113Z,97128.28
2022-11-21T03:15:35.001Z,97132.25
2022-11-21T03:18:02.812Z,97135.97
2022-11-21T03:20:30.433Z,97143.44
2022-11-21T03:22:56.980Z,97137.84
2022-11-21T03:25:23.527Z,97136.56
2022-11-21T03:27:53.465Z,97138.41
2022-11-21T03:30:20.993Z,97142.66
2022-11-21T03:32:47.519Z,97142.66
2022-11-21T03:35:14.995Z,97140.00
2022-11-21T03:37:41.453Z,97149.25
2022-11-21T03:40:08.486Z,97144.53
2022-11-21T03:42:34.957Z,97159.34
2022-11-21T03:45:04.392Z,97162.28
2022-11-21T03:47:30.864Z,97160.69
2022-11-21T03:49:57.336Z,97167.06
2022-11-21T03:52:24.891Z,97162.31
2022-11-21T03:54:51.372Z,97164.97
2022-11-21T03:57:17.822Z,97168.47
2022-11-21T03:59:44.359Z,97179.38
2022-11-21T04:02:10.892Z,97180.22
2022-11-21T04:04:38.019Z,97185.84
2022-11-21T04:07:04.541Z,97189.81
2022-11-21T04:09:31.340Z,97184.81
2022-11-21T04:11:57.818Z,97185.09
2022-11-21T04:14:24.272Z,97193.28
2022-11-21T04:16:50.810Z,97197.25
2022-11-21T04:19:17.554Z,97203.09
2022-11-21T04:21:44.042Z,97203.41
2022-11-21T04:24:10.573Z,97201.28
2022-11-21T04:26:37.052Z,97205.81
2022-11-21T04:29:03.520Z,97198.13
2022-11-21T04:31:30.038Z,97196.31
2022-11-21T04:33:56.514Z,97204.56
2022-11-21T04:36:22.981Z,97206.66
2022-11-21T04:38:49.430Z,97197.09
2022-11-21T04:41:15.965Z,97206.16
2022-11-21T04:43:42.431Z,97204.28
2022-11-21T04:46:08.912Z,97207.22
2022-11-21T04:48:35.374Z,97196.59
2022-11-21T04:51:01.889Z,97202.41
2022-11-21T04:53:28.394Z,97201.34
2022-11-21T04:55:54.994Z,97198.19
2022-11-21T04:58:21.522Z,97199.75
2022-11-21T05:00:47.998Z,97196.59
2022-11-21T05:03:14.457Z,97197.66
2022-11-21T05:05:40.988Z,97195.56
2022-11-21T05:08:07.479Z,97198.78
2022-11-21T05:10:53.903Z,97197.44
2022-11-21T05:13:23.245Z,97193.72
2022-11-21T05:15:51.706Z,97196.59
2022-11-21T05:18:19.860Z,97195.00
2022-11-21T05:20:46.420Z,97196.88
2022-11-21T05:23:12.893Z,97195.56
2022-11-21T05:25:39.638Z,97199.28
2022-11-21T05:28:06.244Z,97195.31
2022-11-21T05:30:32.765Z,97191.63
2022-11-21T05:32:59.222Z,97192.72
2022-11-21T05:35:25.783Z,97195.63
2022-11-21T05:37:56.490Z,97204.13
2022-11-21T05:40:23.110Z,97197.75
2022-11-21T05:43:08.158Z,97193.22
2022-11-21T05:45:34.637Z,97186.88
2022-11-21T05:48:01.123Z,97200.41
2022-11-21T05:50:27.659Z,97195.63
2022-11-21T05:52:54.127Z,97203.09
2022-11-21T05:55:20.609Z,97201.50
2022-11-21T05:57:47.070Z,97198.31
2022-11-21T06:00:14.122Z,97197.81
2022-11-21T06:02:59.212Z,97191.19
2022-11-21T06:05:25.738Z,97196.28
2022-11-21T06:07:52.194Z,97196.81
2022-11-21T06:10:18.782Z,97201.06
2022-11-21T06:12:45.252Z,97204.78
2022-11-21T06:15:11.719Z,97205.56
2022-11-21T06:17:38.185Z,97208.75
2022-11-21T06:20:05.053Z,97209.34
2022-11-21T06:22:31.549Z,97216.22
2022-11-21T06:24:58.067Z,97216.72
2022-11-21T06:27:24.534Z,97202.06
2022-11-21T06:29:51.076Z,97210.25
2022-11-21T06:32:17.599Z,97212.91
2022-11-21T06:34:44.122Z,97217.44
2022-11-21T06:37:10.590Z,97226.75
2022-11-21T06:39:37.057Z,97222.22
2022-11-21T06:42:03.533Z,97225.69
2022-11-21T06:44:30.287Z,97221.44
2022-11-21T06:46:56.878Z,97219.31
2022-11-21T06:49:23.361Z,97220.09
2022-11-21T06:51:49.859Z,97213.72
2022-11-21T06:54:28.455Z,97222.75
2022-11-21T06:56:55.560Z,97232.59
2022-11-21T06:59:22.091Z,97232.84
2022-11-21T07:01:48.646Z,97238.44
2022-11-21T07:04:15.195Z,97231.28
2022-11-21T07:06:41.682Z,97232.88
2022-11-21T07:09:32.209Z,97238.69
2022-11-21T07:11:54.690Z,97238.03
2022-11-21T07:14:21.170Z,97241.66
2022-11-21T07:16:47.649Z,97245.72
2022-11-21T07:19:14.141Z,97252.22
2022-11-21T07:21:40.614Z,97256.69
2022-11-21T07:24:07.154Z,97248.13
2022-11-21T07:26:33.632Z,97236.88
2022-11-21T07:29:00.129Z,97249.28
2022-11-21T07:31:26.835Z,97241.00
2022-11-21T07:33:53.315Z,97248.94
2022-11-21T07:36:19.784Z,97246.78
2022-11-21T07:38:46.617Z,97246.78
2022-11-21T07:41:13.080Z,97238.31
2022-11-21T07:43:39.651Z,97246.88
2022-11-21T07:46:06.212Z,97258.94
2022-11-21T07:48:32.752Z,97260.00
2022-11-21T07:50:59.227Z,97248.63
2022-11-21T07:53:25.721Z,97257.13
2022-11-21T07:55:52.267Z,97258.19
2022-11-21T07:58:18.755Z,97253.72
2022-11-21T08:00:45.205Z,97257.72
2022-11-21T08:03:12.514Z,97259.06
2022-11-21T08:05:40.443Z,97250.94
2022-11-21T08:08:06.940Z,97250.94
2022-11-21T08:10:33.761Z,97241.13
2022-11-21T08:13:00.237Z,97252.78
2022-11-21T08:15:26.699Z,97246.16
2022-11-21T08:17:53.196Z,97258.13
2022-11-21T08:20:19.726Z,97257.63
2022-11-21T08:22:46.208Z,97249.91
2022-11-21T08:25:12.666Z,97252.13
2022-11-21T08:27:39.595Z,97253.75
2022-11-21T08:30:07.808Z,97253.84
2022-11-21T08:32:34.372Z,97259.44
2022-11-21T08:35:00.861Z,97257.84
2022-11-21T08:37:30.156Z,97257.06
2022-11-21T08:39:58.889Z,97249.94
2022-11-21T08:42:25.856Z,97254.19
2022-11-21T08:44:52.309Z,97256.56
2022-11-21T08:47:20.431Z,97257.38
2022-11-21T08:49:47.511Z,97257.13
2022-11-21T08:52:14.719Z,97254.75
2022-11-21T08:54:41.250Z,97261.38
2022-11-21T08:57:07.721Z,97251.56
2022-11-21T08:59:34.195Z,97250.22
2022-11-21T09:02:00.791Z,97246.78
2022-11-21T09:04:27.544Z,97247.06
2022-11-21T09:06:54.171Z,97235.13
2022-11-21T09:09:25.177Z,97239.66
2022-11-21T09:11:52.125Z,97236.75
2022-11-21T09:14:37.079Z,97229.06
2022-11-21T09:17:22.175Z,97229.09
2022-11-21T09:19:49.086Z,97234.66
2022-11-21T09:22:15.563Z,97237.91
2022-11-21T09:24:42.057Z,97233.91
2022-11-21T09:27:08.568Z,97227.03
2022-11-21T09:29:35.073Z,97229.13
2022-11-21T09:32:01.575Z,97237.09
2022-11-21T09:34:28.395Z,97244.78
2022-11-21T09:36:55.532Z,97245.56
2022-11-21T09:39:22.074Z,97247.41
2022-11-21T09:42:16.820Z,97244.47
2022-11-21T09:44:49.867Z,97250.31
2022-11-21T09:47:32.235Z,97244.22
2022-11-21T09:50:07.563Z,97239.16
2022-11-21T09:52:39.627Z,97241.81
2022-11-21T09:55:13.934Z,97237.56
2022-11-21T09:57:40.404Z,97235.47
2022-11-21T10:00:14.553Z,97232.25
2022-11-21T10:02:40.890Z,97235.97
2022-11-21T10:05:12.600Z,97231.16
2022-11-21T10:07:39.172Z,97243.09
2022-11-21T10:10:39.712Z,97229.53
2022-11-21T10:13:09.408Z,97236.16
2022-11-21T10:15:39.115Z,97230.06
2022-11-21T10:18:31.878Z,97236.94
2022-11-21T10:21:24.199Z,97227.16
2022-11-21T10:24:09.541Z,97231.59
2022-11-21T10:26:54.869Z,97226.94
2022-11-21T10:29:21.262Z,97228.16
2022-11-21T10:31:47.755Z,97233.41
2022-11-21T10:34:17.382Z,97224.91
2022-11-21T10:36:45.863Z,97220.41
2022-11-21T10:39:36.975Z,97215.91
2022-11-21T10:42:42.331Z,97206.34
2022-11-21T10:45:19.037Z,97202.38
2022-11-21T10:47:47.327Z,97194.97
2022-11-21T10:50:47.023Z,97196.75
2022-11-21T10:53:37.275Z,97188.19
2022-11-21T10:56:07.902Z,97181.22
2022-11-21T10:58:37.043Z,97174.34
2022-11-21T11:01:03.704Z,97173.00
2022-11-21T11:03:30.283Z,97172.19
2022-11-21T11:05:59.343Z,97166.66
2022-11-21T11:08:27.550Z,97159.97
2022-11-21T11:11:07.839Z,97168.00
2022-11-21T11:13:51.715Z,97170.38
2022-11-21T11:16:19.491Z,97167.69
2022-11-21T11:19:14.007Z,97170.38
2022-11-21T11:21:46.513Z,97153.34
2022-11-21T11:24:12.838Z,97157.38
2022-11-21T11:26:49.034Z,97155.50
2022-11-21T11:29:23.028Z,97148.31
2022-11-21T11:31:56.621Z,97156.50
2022-11-21T11:34:23.951Z,97150.19
2022-11-21T11:36:54.499Z,97141.94
2022-11-21T11:39:45.516Z,97144.47
2022-11-21T11:42:55.488Z,97126.88
2022-11-21T11:45:49.362Z,97129.47
2022-11-21T11:48:16.439Z,97125.28
2022-11-21T11:50:49.355Z,97127.69
2022-11-21T11:53:18.733Z,97128.75
2022-11-21T11:55:55.183Z,97117.09
2022-11-21T11:58:49.442Z,97116.03
2022-11-21T12:01:19.975Z,97108.59
2022-11-21T12:04:00.372Z,97108.38
2022-11-21T12:10:18.364Z,97095.16
2022-11-21T12:12:47.408Z,97091.69
2022-11-21T12:15:47.159Z,97093.84
2022-11-21T12:18:23.450Z,97076.81
2022-11-21T12:20:52.897Z,97071.75
2022-11-21T12:23:19.398Z,97072.47
2022-11-21T12:26:20.169Z,97080.44
2022-11-21T12:29:28.356Z,97066.38
2022-11-21T12:32:28.948Z,97062.13
2022-11-21T12:35:08.242Z,97063.47
2022-11-21T12:38:12.329Z,97059.53
2022-11-21T12:40:56.267Z,97060.09
2022-11-21T12:43:28.639Z,97057.72
2022-11-21T12:46:11.188Z,97049.47
2022-11-21T12:49:04.469Z,97046.66
2022-11-21T12:52:08.064Z,97049.25
2022-11-21T12:54:56.463Z,97049.00
2022-11-21T12:57:33.070Z,97039.72
2022-11-21T13:00:20.808Z,97043.69
2022-11-21T13:03:20.403Z,97031.25
2022-11-21T13:05:48.052Z,97028.84
2022-11-21T13:08:25.816Z,97020.50
2022-11-21T13:11:30.846Z,97012.50
2022-11-21T13:14:20.824Z,97008.47
2022-11-21T13:16:53.035Z,96997.63
2022-11-21T13:19:39.635Z,97005.09
2022-11-21T13:22:07.481Z,97006.34
2022-11-21T13:24:47.241Z,97007.03
2022-11-21T13:27:24.673Z,97003.09
2022-11-21T13:30:10.339Z,97005.75
2022-11-21T13:32:37.045Z,97008.19
2022-11-21T13:35:14.816Z,97001.53
2022-11-21T13:38:03.636Z,97002.47
2022-11-21T13:40:30.136Z,96991.97
2022-11-21T13:43:32.074Z,96990.41
2022-11-21T13:45:58.378Z,96986.66
2022-11-21T13:48:31.167Z,96987.16
2022-11-21T13:51:29.579Z,96986.59
2022-11-21T13:54:13.960Z,96988.16
2022-11-21T13:56:59.175Z,96993.66
2022-11-21T13:59:44.276Z,96992.81
2022-11-21T14:02:43.686Z,96987.34
2022-11-21T14:05:37.375Z,96982.03
2022-11-21T14:08:26.751Z,96973.53
2022-11-21T14:10:56.363Z,96968.19
2022-11-21T14:13:32.778Z,96976.22
2022-11-21T14:16:17.407Z,96965.09
2022-11-21T14:18:44.219Z,96962.59
2022-11-21T14:21:37.047Z,96960.72
2022-11-21T14:24:04.975Z,96954.94
2022-11-21T14:26:33.551Z,96952.84
2022-11-21T14:29:18.798Z,96947.03
2022-11-21T14:31:47.284Z,96942.84
2022-11-21T14:34:14.006Z,96943.19
2022-11-21T14:36:40.466Z,96939.38
2022-11-21T14:39:35.469Z,96931.69
2022-11-21T14:41:56.140Z,96930.53
2022-11-21T14:44:23.569Z,96932.88
2022-11-21T14:46:50.641Z,96919.34
2022-11-21T14:49:17.009Z,96923.16
2022-11-21T14:51:44.439Z,96920.69
2022-11-21T14:54:14.481Z,96913.41
2022-11-21T14:56:40.948Z,96915.56
2022-11-21T14:59:13.785Z,96907.34
2022-11-21T15:01:46.230Z,96898.03
2022-11-21T15:04:14.202Z,96897.31
2022-11-21T15:06:42.000Z,96899.19
2022-11-21T15:12:02.998Z,96886.94
2022-11-21T15:14:50.779Z,96884.44
2022-11-21T15:17:18.679Z,96877.84
2022-11-21T15:19:45.162Z,96878.34
2022-11-21T15:22:24.152Z,96868.19
2022-11-21T15:24:50.619Z,96864.47
2022-11-21T15:27:26.424Z,96864.06
2022-11-21T15:30:03.230Z,96865.34
2022-11-21T15:32:29.839Z,96868.28
2022-11-21T15:34:56.309Z,96866.72
2022-11-21T15:37:25.183Z,96865.06
2022-11-21T15:39:51.649Z,96862.66
2022-11-21T15:42:48.162Z,96852.97
2022-11-21T15:45:19.739Z,96841.09
2022-11-21T15:47:47.016Z,96842.94
2022-11-21T15:50:14.170Z,96847.31
2022-11-21T15:52:48.186Z,96853.53
2022-11-21T15:55:35.113Z,96844.50
2022-11-21T15:58:01.622Z,96848.66
2022-11-21T16:00:28.082Z,96842.59
2022-11-21T16:02:54.890Z,96847.41
2022-11-21T16:05:21.447Z,96835.84
2022-11-21T16:07:48.648Z,96828.88
2022-11-21T16:10:21.261Z,96826.50
2022-11-21T16:12:49.171Z,96831.56
2022-11-21T16:15:15.633Z,96821.00
2022-11-21T16:17:42.249Z,96826.97
2022-11-21T16:20:09.119Z,96825.28
2022-11-21T16:22:35.715Z,96830.22
2022-11-21T16:25:02.978Z,96812.34
2022-11-21T16:27:29.641Z,96812.66
2022-11-21T16:29:56.659Z,96806.41
2022-11-21T16:32:25.324Z,96801.09
2022-11-21T16:34:52.002Z,96794.09
2022-11-21T16:37:18.521Z,96785.00
2022-11-21T16:39:51.698Z,96783.44
2022-11-21T16:42:19.101Z,96788.25
2022-11-21T16:44:45.599Z,96783.66
2022-11-21T16:47:13.509Z,96780.00
2022-11-21T16:49:44.154Z,96771.41
2022-11-21T16:52:10.819Z,96762.00
2022-11-21T16:54:37.299Z,96754.31
2022-11-21T16:57:03.810Z,96749.28
2022-11-21T16:59:31.641Z,96749.00
2022-11-21T17:01:58.695Z,96744.13
2022-11-21T17:04:25.189Z,96746.16
2022-11-21T17:06:53.141Z,96734.63
2022-11-21T17:09:19.592Z,96736.88
2022-11-21T17:11:46.043Z,96724.94
2022-11-21T17:14:12.530Z,96723.66
2022-11-21T17:16:42.164Z,96719.72
2022-11-21T17:19:10.895Z,96718.44
2022-11-21T17:21:37.375Z,96709.06
2022-11-21T17:24:03.885Z,96713.19
2022-11-21T17:26:30.454Z,96712.69
2022-11-21T17:29:00.647Z,96702.94
2022-11-21T17:31:27.242Z,96692.66
2022-11-21T17:33:55.897Z,96689.38
2022-11-21T17:36:23.371Z,96687.81
2022-11-21T17:38:49.873Z,96681.06
2022-11-21T17:41:17.523Z,96671.66
2022-11-21T17:43:44.115Z,96675.13
2022-11-21T17:46:14.589Z,96666.34
2022-11-21T17:48:41.133Z,96666.06
2022-11-21T17:51:09.394Z,96662.44
2022-11-21T17:53:37.681Z,96658.84
2022-11-21T17:56:05.206Z,96640.94
2022-11-21T17:58:31.878Z,96651.16
2022-11-21T18:00:59.729Z,96650.06
2022-11-21T18:03:26.576Z,96642.03
2022-11-21T18:06:03.244Z,96638.25
2022-11-21T18:08:33.730Z,96631.97
2022-11-21T18:11:00.355Z,96619.75
2022-11-21T18:13:27.622Z,96622.41
2022-11-21T18:15:54.226Z,96624.13
2022-11-21T18:18:20.688Z,96627.09
2022-11-21T18:20:47.144Z,96621.94
2022-11-21T18:23:13.613Z,96615.03
2022-11-21T18:25:40.112Z,96616.91
2022-11-21T18:28:06.609Z,96611.25
2022-11-21T18:30:33.096Z,96600.72
2022-11-21T18:32:59.940Z,96599.00
2022-11-21T18:35:27.063Z,96593.81
2022-11-21T18:37:53.529Z,96593.81
2022-11-21T18:40:19.997Z,96592.56
2022-11-21T18:42:47.051Z,96598.84
2022-11-21T18:45:13.656Z,96598.38
2022-11-21T18:47:41.141Z,96590.53
2022-11-21T18:50:07.820Z,96586.44
2022-11-21T18:52:35.076Z,96579.81
2022-11-21T18:55:01.550Z,96577.81
2022-11-21T18:57:28.038Z,96579.06
2022-11-21T18:59:54.540Z,96570.25
2022-11-21T19:02:21.118Z,96565.84
2022-11-21T19:04:47.658Z,96560.06
2022-11-21T19:07:14.191Z,96562.41
2022-11-21T19:09:40.665Z,96548.28
2022-11-21T19:12:07.218Z,96548.88
2022-11-21T19:14:33.701Z,96537.25
2022-11-21T19:17:00.162Z,96549.53
2022-11-21T19:19:36.063Z,96536.47
2022-11-21T19:22:04.580Z,96539.16
2022-11-21T19:24:31.146Z,96536.66
2022-11-21T19:26:57.633Z,96532.88
2022-11-21T19:29:24.156Z,96523.47
2022-11-21T19:31:50.612Z,96531.16
2022-11-21T19:34:17.314Z,96545.91
2022-11-21T19:36:44.406Z,96551.72
2022-11-21T19:39:11.106Z,96558.78
2022-11-21T19:41:37.587Z,96558.44
2022-11-21T19:44:04.113Z,96559.25
2022-11-21T19:46:32.420Z,96564.28
2022-11-21T19:48:59.287Z,96553.44
2022-11-21T19:51:34.033Z,96551.84
2022-11-21T19:54:07.364Z,96546.06
2022-11-21T19:56:33.825Z,96545.28
2022-11-21T19:59:00.333Z,96542.13
2022-11-21T20:01:28.179Z,96542.56
2022-11-21T20:03:56.906Z,96537.88
2022-11-21T20:06:37.647Z,96541.34
2022-11-21T20:09:30.634Z,96541.81
2022-11-21T20:12:01.590Z,96553.59
2022-11-21T20:14:43.962Z,96548.72
2022-11-21T20:17:10.424Z,96547.16
2022-11-21T20:19:36.942Z,96541.03
2022-11-21T20:22:03.416Z,96555.47
2022-11-21T20:24:30.116Z,96563.66
2022-11-21T20:26:57.183Z,96575.09
2022-11-21T20:29:23.707Z,96581.34
2022-11-21T20:31:50.182Z,96584.66
2022-11-21T20:34:16.799Z,96578.06
2022-11-21T20:36:43.432Z,96578.84
2022-11-21T20:39:16.394Z,96571.59
2022-11-21T20:41:42.911Z,96564.53
2022-11-21T20:45:11.721Z,96573.28
2022-11-21T20:47:06.466Z,96554.94
2022-11-21T20:49:33.183Z,96563.88
2022-11-21T20:54:46.266Z,96551.00
2022-11-21T20:57:15.197Z,96544.88
2022-11-21T20:59:42.227Z,96531.56
2022-11-21T21:02:11.641Z,96529.53
2022-11-21T21:04:38.182Z,96526.38
2022-11-21T21:07:04.756Z,96524.19
2022-11-21T21:09:31.569Z,96521.22
2022-11-21T21:11:58.248Z,96523.41
2022-11-21T21:14:24.706Z,96530.16
2022-11-21T21:16:51.225Z,96527.81
2022-11-21T21:19:17.946Z,96525.59
2022-11-21T21:21:44.462Z,96527.66
2022-11-21T21:24:11.285Z,96520.91
2022-11-21T21:26:43.555Z,96527.19
2022-11-21T21:29:16.996Z,96520.13
2022-11-21T21:31:49.887Z,96516.84
2022-11-21T21:34:17.717Z,96503.53
2022-11-21T21:36:44.283Z,96501.16
2022-11-21T21:39:10.742Z,96497.88
2022-11-21T21:41:39.900Z,96495.50
2022-11-21T21:44:06.691Z,96495.22
2022-11-21T21:46:33.214Z,96493.16
2022-11-21T21:48:59.747Z,96482.94
2022-11-21T21:51:27.388Z,96477.16
2022-11-21T21:53:54.475Z,96473.53
2022-11-21T21:56:21.384Z,96475.09
2022-11-21T21:58:48.386Z,96469.44
2022-11-21T22:01:18.791Z,96463.34
2022-11-21T22:03:45.946Z,96461.44
2022-11-21T22:06:17.245Z,96453.59
2022-11-21T22:08:44.704Z,96457.69
2022-11-21T22:11:13.050Z,96440.56
2022-11-21T22:13:40.508Z,96446.53
2022-11-21T22:16:07.408Z,96448.59
2022-11-21T22:18:34.044Z,96440.09
2022-11-21T22:21:00.598Z,96427.69
2022-11-21T22:23:27.129Z,96430.38
2022-11-21T22:25:57.205Z,96423.47
2022-11-21T22:28:24.451Z,96420.81
2022-11-21T22:30:57.349Z,96418.13
2022-11-21T22:33:23.938Z,96418.47
2022-11-21T22:35:50.436Z,96410.28
2022-11-21T22:38:17.223Z,96403.41
2022-11-21T22:40:44.205Z,96409.03
2022-11-21T22:43:10.704Z,96398.84
2022-11-21T22:45:37.238Z,96390.38
2022-11-21T22:48:04.240Z,96387.56
2022-11-21T22:50:30.712Z,96388.34
2022-11-21T22:52:57.224Z,96391.31
2022-11-21T22:55:23.679Z,96391.94
2022-11-21T22:57:50.170Z,96392.25
2022-11-21T23:00:17.198Z,96389.91
2022-11-21T23:02:43.656Z,96393.53
2022-11-21T23:05:10.138Z,96394.94
2022-11-21T23:07:36.647Z,96382.41
2022-11-21T23:10:03.238Z,96385.34
2022-11-21T23:12:30.038Z,96378.94
2022-11-21T23:14:56.499Z,96383.78
2022-11-21T23:17:23.893Z,96376.44
2022-11-21T23:19:50.362Z,96374.84
2022-11-21T23:22:16.826Z,96366.72
2022-11-21T23:24:43.321Z,96372.84
2022-11-21T23:27:09.782Z,96379.41
2022-11-21T23:29:36.233Z,96391.97
2022-11-21T23:32:02.727Z,96386.94
2022-11-21T23:34:29.357Z,96380.06
2022-11-21T23:36:55.809Z,96380.66
2022-11-21T23:39:22.264Z,96391.66
2022-11-21T23:41:48.737Z,96390.41
2022-11-21T23:44:15.209Z,96383.00
2022-11-21T23:46:41.705Z,96375.16
2022-11-21T23:49:08.170Z,96375.63
2022-11-21T23:51:34.667Z,96368.75
2022-11-21T23:54:01.143Z,96368.91
2022-11-21T23:56:27.602Z,96372.97
2022-11-21T23:58:54.062Z,96364.78
